sensor_id;sensor_type;location;lat;lon;timestamp;P1;durP1;ratioP1;P2;durP2;ratioP2
47531;SDS011;33273;52.254;7.988;2023-05-07T00:00:58;21.77;;;16.33;;
47531;SDS011;33273;52.254;7.988;2023-05-07T00:03:25;23.90;;;16.02;;
47531;SDS011;33273;52.254;7.988;2023-05-07T00:08:18;23.75;;;16.27;;
47531;SDS011;33273;52.254;7.988;2023-05-07T00:10:45;24.35;;;16.35;;
47531;SDS011;33273;52.254;7.988;2023-05-07T00:13:12;25.52;;;17.60;;
47531;SDS011;33273;52.254;7.988;2023-05-07T00:15:38;23.70;;;16.47;;
47531;SDS011;33273;52.254;7.988;2023-05-07T00:18:05;23.65;;;16.10;;
47531;SDS011;33273;52.254;7.988;2023-05-07T00:20:30;21.60;;;16.00;;
47531;SDS011;33273;52.254;7.988;2023-05-07T00:22:56;21.67;;;15.60;;
47531;SDS011;33273;52.254;7.988;2023-05-07T00:25:22;22.33;;;15.57;;
47531;SDS011;33273;52.254;7.988;2023-05-07T00:27:49;23.65;;;16.85;;
47531;SDS011;33273;52.254;7.988;2023-05-07T00:30:16;23.17;;;16.63;;
47531;SDS011;33273;52.254;7.988;2023-05-07T00:32:42;23.27;;;15.77;;
47531;SDS011;33273;52.254;7.988;2023-05-07T00:35:10;22.20;;;16.85;;
47531;SDS011;33273;52.254;7.988;2023-05-07T00:37:36;23.75;;;16.35;;
47531;SDS011;33273;52.254;7.988;2023-05-07T00:40:03;24.90;;;16.63;;
47531;SDS011;33273;52.254;7.988;2023-05-07T00:42:32;22.73;;;16.60;;
47531;SDS011;33273;52.254;7.988;2023-05-07T00:44:58;26.75;;;17.23;;
47531;SDS011;33273;52.254;7.988;2023-05-07T00:47:25;22.10;;;16.37;;
47531;SDS011;33273;52.254;7.988;2023-05-07T00:49:51;23.73;;;16.15;;
47531;SDS011;33273;52.254;7.988;2023-05-07T00:52:17;24.75;;;18.25;;
47531;SDS011;33273;52.254;7.988;2023-05-07T00:54:45;27.77;;;17.25;;
47531;SDS011;33273;52.254;7.988;2023-05-07T00:57:11;26.60;;;17.87;;
47531;SDS011;33273;52.254;7.988;2023-05-07T00:59:37;23.70;;;17.80;;
47531;SDS011;33273;52.254;7.988;2023-05-07T01:02:05;29.88;;;18.95;;
47531;SDS011;33273;52.254;7.988;2023-05-07T01:04:30;27.33;;;18.15;;
47531;SDS011;33273;52.254;7.988;2023-05-07T01:06:58;25.77;;;16.98;;
47531;SDS011;33273;52.254;7.988;2023-05-07T01:09:25;28.20;;;18.55;;
47531;SDS011;33273;52.254;7.988;2023-05-07T01:11:53;27.67;;;17.67;;
47531;SDS011;33273;52.254;7.988;2023-05-07T01:14:21;28.20;;;18.17;;
47531;SDS011;33273;52.254;7.988;2023-05-07T01:16:48;25.63;;;18.38;;
47531;SDS011;33273;52.254;7.988;2023-05-07T01:19:17;25.85;;;18.17;;
47531;SDS011;33273;52.254;7.988;2023-05-07T01:21:48;27.15;;;19.70;;
47531;SDS011;33273;52.254;7.988;2023-05-07T01:24:17;25.58;;;18.02;;
47531;SDS011;33273;52.254;7.988;2023-05-07T01:26:43;25.92;;;18.60;;
47531;SDS011;33273;52.254;7.988;2023-05-07T01:29:13;27.13;;;17.85;;
47531;SDS011;33273;52.254;7.988;2023-05-07T01:31:39;29.10;;;18.83;;
47531;SDS011;33273;52.254;7.988;2023-05-07T01:34:08;25.35;;;18.80;;
47531;SDS011;33273;52.254;7.988;2023-05-07T01:36:35;30.00;;;19.65;;
47531;SDS011;33273;52.254;7.988;2023-05-07T01:39:04;30.67;;;18.77;;
47531;SDS011;33273;52.254;7.988;2023-05-07T01:41:31;27.98;;;19.77;;
47531;SDS011;33273;52.254;7.988;2023-05-07T01:43:58;30.35;;;18.75;;
47531;SDS011;33273;52.254;7.988;2023-05-07T01:46:26;27.48;;;20.00;;
47531;SDS011;33273;52.254;7.988;2023-05-07T01:48:53;31.20;;;20.00;;
47531;SDS011;33273;52.254;7.988;2023-05-07T01:51:19;32.38;;;19.35;;
47531;SDS011;33273;52.254;7.988;2023-05-07T01:53:47;33.03;;;21.70;;
47531;SDS011;33273;52.254;7.988;2023-05-07T01:56:18;31.13;;;20.60;;
47531;SDS011;33273;52.254;7.988;2023-05-07T01:58:45;32.17;;;20.77;;
47531;SDS011;33273;52.254;7.988;2023-05-07T02:01:12;31.45;;;21.08;;
47531;SDS011;33273;52.254;7.988;2023-05-07T02:03:39;30.92;;;20.77;;
47531;SDS011;33273;52.254;7.988;2023-05-07T02:06:13;32.35;;;21.25;;
47531;SDS011;33273;52.254;7.988;2023-05-07T02:08:40;33.85;;;21.65;;
47531;SDS011;33273;52.254;7.988;2023-05-07T02:11:06;29.83;;;20.30;;
47531;SDS011;33273;52.254;7.988;2023-05-07T02:13:33;31.35;;;21.63;;
47531;SDS011;33273;52.254;7.988;2023-05-07T02:16:00;34.08;;;20.90;;
47531;SDS011;33273;52.254;7.988;2023-05-07T02:18:27;33.47;;;21.35;;
47531;SDS011;33273;52.254;7.988;2023-05-07T02:20:53;36.08;;;22.67;;
47531;SDS011;33273;52.254;7.988;2023-05-07T02:23:19;34.93;;;22.77;;
47531;SDS011;33273;52.254;7.988;2023-05-07T02:25:45;33.63;;;22.00;;
47531;SDS011;33273;52.254;7.988;2023-05-07T02:28:11;33.05;;;21.80;;
47531;SDS011;33273;52.254;7.988;2023-05-07T02:30:47;32.92;;;22.33;;
47531;SDS011;33273;52.254;7.988;2023-05-07T02:33:13;35.38;;;23.65;;
47531;SDS011;33273;52.254;7.988;2023-05-07T02:35:40;35.30;;;22.65;;
47531;SDS011;33273;52.254;7.988;2023-05-07T02:38:06;38.35;;;24.10;;
47531;SDS011;33273;52.254;7.988;2023-05-07T02:40:33;33.20;;;22.02;;
47531;SDS011;33273;52.254;7.988;2023-05-07T02:42:59;35.40;;;23.33;;
47531;SDS011;33273;52.254;7.988;2023-05-07T02:45:25;36.13;;;23.97;;
47531;SDS011;33273;52.254;7.988;2023-05-07T02:47:53;38.97;;;24.77;;
47531;SDS011;33273;52.254;7.988;2023-05-07T02:52:45;37.33;;;23.67;;
47531;SDS011;33273;52.254;7.988;2023-05-07T02:55:12;33.65;;;23.08;;
47531;SDS011;33273;52.254;7.988;2023-05-07T02:57:38;38.38;;;23.83;;
47531;SDS011;33273;52.254;7.988;2023-05-07T03:02:49;38.63;;;24.67;;
47531;SDS011;33273;52.254;7.988;2023-05-07T03:05:15;39.53;;;25.10;;
47531;SDS011;33273;52.254;7.988;2023-05-07T03:07:41;36.17;;;22.43;;
47531;SDS011;33273;52.254;7.988;2023-05-07T03:10:11;38.20;;;25.20;;
47531;SDS011;33273;52.254;7.988;2023-05-07T03:12:37;39.55;;;25.73;;
47531;SDS011;33273;52.254;7.988;2023-05-07T03:15:03;38.08;;;24.42;;
47531;SDS011;33273;52.254;7.988;2023-05-07T03:17:29;37.83;;;25.25;;
47531;SDS011;33273;52.254;7.988;2023-05-07T03:19:55;37.90;;;23.52;;
47531;SDS011;33273;52.254;7.988;2023-05-07T03:22:21;38.90;;;25.30;;
47531;SDS011;33273;52.254;7.988;2023-05-07T03:24:48;37.20;;;26.20;;
47531;SDS011;33273;52.254;7.988;2023-05-07T03:27:14;38.40;;;24.58;;
47531;SDS011;33273;52.254;7.988;2023-05-07T03:32:08;38.85;;;25.60;;
47531;SDS011;33273;52.254;7.988;2023-05-07T03:34:34;38.97;;;25.45;;
47531;SDS011;33273;52.254;7.988;2023-05-07T03:37:00;41.05;;;24.85;;
47531;SDS011;33273;52.254;7.988;2023-05-07T03:39:26;41.30;;;26.00;;
47531;SDS011;33273;52.254;7.988;2023-05-07T03:41:52;42.33;;;27.13;;
47531;SDS011;33273;52.254;7.988;2023-05-07T03:44:18;40.22;;;26.85;;
47531;SDS011;33273;52.254;7.988;2023-05-07T03:46:45;47.15;;;28.55;;
47531;SDS011;33273;52.254;7.988;2023-05-07T03:49:11;42.85;;;27.33;;
47531;SDS011;33273;52.254;7.988;2023-05-07T03:51:37;41.83;;;25.55;;
47531;SDS011;33273;52.254;7.988;2023-05-07T03:54:05;43.67;;;25.77;;
47531;SDS011;33273;52.254;7.988;2023-05-07T03:56:32;40.08;;;27.48;;
47531;SDS011;33273;52.254;7.988;2023-05-07T03:58:59;44.50;;;27.17;;
47531;SDS011;33273;52.254;7.988;2023-05-07T04:01:26;45.78;;;27.90;;
47531;SDS011;33273;52.254;7.988;2023-05-07T04:03:53;43.50;;;27.45;;
47531;SDS011;33273;52.254;7.988;2023-05-07T04:06:19;47.90;;;27.58;;
47531;SDS011;33273;52.254;7.988;2023-05-07T04:08:47;42.40;;;28.25;;
47531;SDS011;33273;52.254;7.988;2023-05-07T04:11:13;44.50;;;27.93;;
47531;SDS011;33273;52.254;7.988;2023-05-07T04:13:39;41.88;;;26.17;;
47531;SDS011;33273;52.254;7.988;2023-05-07T04:16:07;43.13;;;27.10;;
47531;SDS011;33273;52.254;7.988;2023-05-07T04:18:35;45.15;;;27.83;;
47531;SDS011;33273;52.254;7.988;2023-05-07T04:21:01;40.83;;;26.20;;
47531;SDS011;33273;52.254;7.988;2023-05-07T04:23:27;41.72;;;27.60;;
47531;SDS011;33273;52.254;7.988;2023-05-07T04:25:54;46.03;;;27.40;;
47531;SDS011;33273;52.254;7.988;2023-05-07T04:28:25;44.95;;;27.92;;
47531;SDS011;33273;52.254;7.988;2023-05-07T04:30:51;44.17;;;27.02;;
47531;SDS011;33273;52.254;7.988;2023-05-07T04:33:18;40.97;;;27.10;;
47531;SDS011;33273;52.254;7.988;2023-05-07T04:35:46;47.67;;;27.15;;
47531;SDS011;33273;52.254;7.988;2023-05-07T04:38:12;43.97;;;26.48;;
47531;SDS011;33273;52.254;7.988;2023-05-07T04:40:38;42.53;;;27.87;;
47531;SDS011;33273;52.254;7.988;2023-05-07T04:43:06;44.88;;;26.98;;
47531;SDS011;33273;52.254;7.988;2023-05-07T04:45:38;43.13;;;27.23;;
47531;SDS011;33273;52.254;7.988;2023-05-07T04:48:08;44.70;;;26.50;;
47531;SDS011;33273;52.254;7.988;2023-05-07T04:50:36;43.75;;;25.65;;
47531;SDS011;33273;52.254;7.988;2023-05-07T04:53:03;41.97;;;26.48;;
47531;SDS011;33273;52.254;7.988;2023-05-07T04:55:29;42.30;;;29.00;;
47531;SDS011;33273;52.254;7.988;2023-05-07T04:57:55;43.28;;;27.80;;
47531;SDS011;33273;52.254;7.988;2023-05-07T05:00:21;43.75;;;27.38;;
47531;SDS011;33273;52.254;7.988;2023-05-07T05:02:49;40.95;;;27.17;;
47531;SDS011;33273;52.254;7.988;2023-05-07T05:05:18;44.40;;;27.27;;
47531;SDS011;33273;52.254;7.988;2023-05-07T05:07:45;43.42;;;26.27;;
47531;SDS011;33273;52.254;7.988;2023-05-07T05:10:12;44.58;;;26.70;;
47531;SDS011;33273;52.254;7.988;2023-05-07T05:12:39;44.05;;;27.77;;
47531;SDS011;33273;52.254;7.988;2023-05-07T05:15:06;41.72;;;26.10;;
47531;SDS011;33273;52.254;7.988;2023-05-07T05:17:33;43.08;;;26.30;;
47531;SDS011;33273;52.254;7.988;2023-05-07T05:20:01;40.67;;;26.48;;
47531;SDS011;33273;52.254;7.988;2023-05-07T05:22:28;42.55;;;26.55;;
47531;SDS011;33273;52.254;7.988;2023-05-07T05:24:57;43.58;;;27.77;;
47531;SDS011;33273;52.254;7.988;2023-05-07T05:27:23;41.77;;;25.90;;
47531;SDS011;33273;52.254;7.988;2023-05-07T05:29:50;40.67;;;25.38;;
47531;SDS011;33273;52.254;7.988;2023-05-07T05:32:16;38.45;;;24.60;;
47531;SDS011;33273;52.254;7.988;2023-05-07T05:34:42;34.17;;;24.00;;
47531;SDS011;33273;52.254;7.988;2023-05-07T05:37:08;37.92;;;24.73;;
47531;SDS011;33273;52.254;7.988;2023-05-07T05:39:35;36.38;;;22.75;;
47531;SDS011;33273;52.254;7.988;2023-05-07T05:42:02;32.20;;;21.60;;
47531;SDS011;33273;52.254;7.988;2023-05-07T05:44:28;35.22;;;21.65;;
47531;SDS011;33273;52.254;7.988;2023-05-07T05:46:53;34.40;;;21.83;;
47531;SDS011;33273;52.254;7.988;2023-05-07T05:49:21;33.17;;;20.98;;
47531;SDS011;33273;52.254;7.988;2023-05-07T05:51:47;32.67;;;21.48;;
47531;SDS011;33273;52.254;7.988;2023-05-07T05:54:13;32.95;;;20.98;;
47531;SDS011;33273;52.254;7.988;2023-05-07T05:59:07;32.70;;;20.90;;
47531;SDS011;33273;52.254;7.988;2023-05-07T06:01:33;32.50;;;22.42;;
47531;SDS011;33273;52.254;7.988;2023-05-07T06:04:01;32.58;;;21.77;;
47531;SDS011;33273;52.254;7.988;2023-05-07T06:06:28;30.60;;;22.40;;
47531;SDS011;33273;52.254;7.988;2023-05-07T06:08:54;32.47;;;21.03;;
47531;SDS011;33273;52.254;7.988;2023-05-07T06:11:26;35.95;;;23.00;;
47531;SDS011;33273;52.254;7.988;2023-05-07T06:13:52;31.52;;;20.90;;
47531;SDS011;33273;52.254;7.988;2023-05-07T06:16:19;32.23;;;20.43;;
47531;SDS011;33273;52.254;7.988;2023-05-07T06:18:45;33.00;;;20.95;;
47531;SDS011;33273;52.254;7.988;2023-05-07T06:21:13;32.92;;;20.77;;
47531;SDS011;33273;52.254;7.988;2023-05-07T06:23:39;31.65;;;20.98;;
47531;SDS011;33273;52.254;7.988;2023-05-07T06:26:07;30.85;;;21.02;;
47531;SDS011;33273;52.254;7.988;2023-05-07T06:28:37;31.85;;;20.58;;
47531;SDS011;33273;52.254;7.988;2023-05-07T06:31:17;29.38;;;20.35;;
47531;SDS011;33273;52.254;7.988;2023-05-07T06:34:10;32.63;;;20.15;;
47531;SDS011;33273;52.254;7.988;2023-05-07T06:36:40;30.35;;;20.38;;
47531;SDS011;33273;52.254;7.988;2023-05-07T06:39:35;30.05;;;18.95;;
47531;SDS011;33273;52.254;7.988;2023-05-07T06:42:02;29.02;;;19.45;;
47531;SDS011;33273;52.254;7.988;2023-05-07T06:44:31;30.95;;;20.27;;
47531;SDS011;33273;52.254;7.988;2023-05-07T06:47:10;32.72;;;20.25;;
47531;SDS011;33273;52.254;7.988;2023-05-07T06:49:38;27.20;;;18.50;;
47531;SDS011;33273;52.254;7.988;2023-05-07T06:52:24;28.95;;;18.63;;
47531;SDS011;33273;52.254;7.988;2023-05-07T06:54:50;28.52;;;18.95;;
47531;SDS011;33273;52.254;7.988;2023-05-07T06:57:18;28.23;;;19.60;;
47531;SDS011;33273;52.254;7.988;2023-05-07T07:00:04;27.38;;;17.75;;
47531;SDS011;33273;52.254;7.988;2023-05-07T07:02:41;30.98;;;19.20;;
47531;SDS011;33273;52.254;7.988;2023-05-07T07:05:09;29.92;;;19.20;;
47531;SDS011;33273;52.254;7.988;2023-05-07T07:07:34;27.35;;;18.45;;
47531;SDS011;33273;52.254;7.988;2023-05-07T07:10:01;27.05;;;17.38;;
47531;SDS011;33273;52.254;7.988;2023-05-07T07:12:28;29.42;;;17.90;;
47531;SDS011;33273;52.254;7.988;2023-05-07T07:17:21;28.83;;;18.08;;
47531;SDS011;33273;52.254;7.988;2023-05-07T07:19:47;25.42;;;18.20;;
47531;SDS011;33273;52.254;7.988;2023-05-07T07:22:13;26.93;;;18.57;;
47531;SDS011;33273;52.254;7.988;2023-05-07T07:24:39;25.48;;;17.40;;
47531;SDS011;33273;52.254;7.988;2023-05-07T07:27:09;27.52;;;16.80;;
47531;SDS011;33273;52.254;7.988;2023-05-07T07:29:35;28.45;;;16.73;;
47531;SDS011;33273;52.254;7.988;2023-05-07T07:32:01;26.48;;;16.50;;
47531;SDS011;33273;52.254;7.988;2023-05-07T07:34:28;23.50;;;16.48;;
47531;SDS011;33273;52.254;7.988;2023-05-07T07:36:54;25.38;;;16.38;;
47531;SDS011;33273;52.254;7.988;2023-05-07T07:39:20;23.33;;;16.92;;
47531;SDS011;33273;52.254;7.988;2023-05-07T07:41:49;27.63;;;17.42;;
47531;SDS011;33273;52.254;7.988;2023-05-07T07:44:16;26.00;;;18.02;;
47531;SDS011;33273;52.254;7.988;2023-05-07T07:46:48;22.42;;;16.80;;
47531;SDS011;33273;52.254;7.988;2023-05-07T07:49:14;28.55;;;16.58;;
47531;SDS011;33273;52.254;7.988;2023-05-07T07:51:41;25.70;;;16.35;;
47531;SDS011;33273;52.254;7.988;2023-05-07T07:54:08;25.60;;;16.35;;
47531;SDS011;33273;52.254;7.988;2023-05-07T07:56:35;26.13;;;16.88;;
47531;SDS011;33273;52.254;7.988;2023-05-07T07:59:02;24.42;;;15.88;;
47531;SDS011;33273;52.254;7.988;2023-05-07T08:01:30;22.95;;;15.70;;
47531;SDS011;33273;52.254;7.988;2023-05-07T08:03:57;24.88;;;16.40;;
47531;SDS011;33273;52.254;7.988;2023-05-07T08:06:27;23.25;;;15.00;;
47531;SDS011;33273;52.254;7.988;2023-05-07T08:08:53;24.80;;;16.80;;
47531;SDS011;33273;52.254;7.988;2023-05-07T08:11:21;23.20;;;15.73;;
47531;SDS011;33273;52.254;7.988;2023-05-07T08:13:47;21.55;;;15.52;;
47531;SDS011;33273;52.254;7.988;2023-05-07T08:16:14;24.63;;;15.38;;
47531;SDS011;33273;52.254;7.988;2023-05-07T08:18:41;22.13;;;15.63;;
47531;SDS011;33273;52.254;7.988;2023-05-07T08:21:07;23.47;;;14.83;;
47531;SDS011;33273;52.254;7.988;2023-05-07T08:23:32;25.30;;;16.97;;
47531;SDS011;33273;52.254;7.988;2023-05-07T08:26:00;22.40;;;14.90;;
47531;SDS011;33273;52.254;7.988;2023-05-07T08:28:26;23.10;;;15.57;;
47531;SDS011;33273;52.254;7.988;2023-05-07T08:30:51;24.20;;;16.23;;
47531;SDS011;33273;52.254;7.988;2023-05-07T08:33:18;24.02;;;15.45;;
47531;SDS011;33273;52.254;7.988;2023-05-07T08:35:45;21.38;;;14.75;;
47531;SDS011;33273;52.254;7.988;2023-05-07T08:38:12;21.83;;;15.57;;
47531;SDS011;33273;52.254;7.988;2023-05-07T08:40:40;25.05;;;15.95;;
47531;SDS011;33273;52.254;7.988;2023-05-07T08:43:14;20.35;;;15.27;;
47531;SDS011;33273;52.254;7.988;2023-05-07T08:45:41;20.17;;;14.10;;
47531;SDS011;33273;52.254;7.988;2023-05-07T08:48:14;23.92;;;15.95;;
47531;SDS011;33273;52.254;7.988;2023-05-07T08:50:44;21.75;;;14.82;;
47531;SDS011;33273;52.254;7.988;2023-05-07T08:53:10;21.83;;;15.60;;
47531;SDS011;33273;52.254;7.988;2023-05-07T08:55:37;20.80;;;14.68;;
47531;SDS011;33273;52.254;7.988;2023-05-07T08:58:03;21.38;;;13.57;;
47531;SDS011;33273;52.254;7.988;2023-05-07T09:00:30;22.15;;;13.57;;
47531;SDS011;33273;52.254;7.988;2023-05-07T09:02:59;19.55;;;13.85;;
47531;SDS011;33273;52.254;7.988;2023-05-07T09:05:26;17.70;;;12.32;;
47531;SDS011;33273;52.254;7.988;2023-05-07T09:07:52;19.73;;;13.50;;
47531;SDS011;33273;52.254;7.988;2023-05-07T09:10:20;18.77;;;13.20;;
47531;SDS011;33273;52.254;7.988;2023-05-07T09:12:46;19.75;;;13.88;;
47531;SDS011;33273;52.254;7.988;2023-05-07T09:15:15;20.90;;;14.38;;
47531;SDS011;33273;52.254;7.988;2023-05-07T09:17:42;19.15;;;12.65;;
47531;SDS011;33273;52.254;7.988;2023-05-07T09:20:09;20.63;;;14.50;;
47531;SDS011;33273;52.254;7.988;2023-05-07T09:22:40;16.40;;;12.40;;
47531;SDS011;33273;52.254;7.988;2023-05-07T09:25:10;18.90;;;13.52;;
47531;SDS011;33273;52.254;7.988;2023-05-07T09:27:37;18.63;;;13.40;;
47531;SDS011;33273;52.254;7.988;2023-05-07T09:30:06;17.17;;;12.57;;
47531;SDS011;33273;52.254;7.988;2023-05-07T09:32:34;21.05;;;12.45;;
47531;SDS011;33273;52.254;7.988;2023-05-07T09:35:04;16.52;;;12.38;;
47531;SDS011;33273;52.254;7.988;2023-05-07T09:37:30;17.73;;;12.30;;
47531;SDS011;33273;52.254;7.988;2023-05-07T09:39:59;18.92;;;13.80;;
47531;SDS011;33273;52.254;7.988;2023-05-07T09:42:26;19.83;;;12.88;;
47531;SDS011;33273;52.254;7.988;2023-05-07T09:44:55;22.67;;;13.25;;
47531;SDS011;33273;52.254;7.988;2023-05-07T09:47:24;15.95;;;12.18;;
47531;SDS011;33273;52.254;7.988;2023-05-07T09:49:55;18.23;;;13.57;;
47531;SDS011;33273;52.254;7.988;2023-05-07T09:52:23;20.00;;;11.93;;
47531;SDS011;33273;52.254;7.988;2023-05-07T09:54:55;17.30;;;11.73;;
47531;SDS011;33273;52.254;7.988;2023-05-07T09:57:26;18.55;;;13.88;;
47531;SDS011;33273;52.254;7.988;2023-05-07T09:59:59;17.98;;;12.60;;
47531;SDS011;33273;52.254;7.988;2023-05-07T10:02:30;15.10;;;11.55;;
47531;SDS011;33273;52.254;7.988;2023-05-07T10:04:59;16.13;;;11.95;;
47531;SDS011;33273;52.254;7.988;2023-05-07T10:07:30;17.35;;;12.40;;
47531;SDS011;33273;52.254;7.988;2023-05-07T10:10:02;14.65;;;11.73;;
47531;SDS011;33273;52.254;7.988;2023-05-07T10:12:34;15.68;;;11.57;;
47531;SDS011;33273;52.254;7.988;2023-05-07T10:15:08;16.70;;;11.85;;
47531;SDS011;33273;52.254;7.988;2023-05-07T10:17:39;15.93;;;10.95;;
47531;SDS011;33273;52.254;7.988;2023-05-07T10:20:07;16.13;;;12.15;;
47531;SDS011;33273;52.254;7.988;2023-05-07T10:22:41;15.63;;;11.43;;
47531;SDS011;33273;52.254;7.988;2023-05-07T10:25:20;17.67;;;11.80;;
47531;SDS011;33273;52.254;7.988;2023-05-07T10:27:51;15.98;;;12.00;;
47531;SDS011;33273;52.254;7.988;2023-05-07T10:33:30;13.93;;;11.35;;
47531;SDS011;33273;52.254;7.988;2023-05-07T10:35:59;14.48;;;11.00;;
47531;SDS011;33273;52.254;7.988;2023-05-07T10:38:29;15.88;;;10.50;;
47531;SDS011;33273;52.254;7.988;2023-05-07T10:40:58;14.25;;;10.13;;
47531;SDS011;33273;52.254;7.988;2023-05-07T10:43:24;13.52;;;10.18;;
47531;SDS011;33273;52.254;7.988;2023-05-07T10:49:06;14.93;;;10.20;;
47531;SDS011;33273;52.254;7.988;2023-05-07T10:51:41;13.07;;;9.80;;
47531;SDS011;33273;52.254;7.988;2023-05-07T10:54:18;12.37;;;9.10;;
47531;SDS011;33273;52.254;7.988;2023-05-07T10:56:53;12.63;;;9.07;;
47531;SDS011;33273;52.254;7.988;2023-05-07T10:59:31;12.32;;;9.05;;
47531;SDS011;33273;52.254;7.988;2023-05-07T11:02:13;12.52;;;9.55;;
47531;SDS011;33273;52.254;7.988;2023-05-07T11:07:55;12.13;;;9.07;;
47531;SDS011;33273;52.254;7.988;2023-05-07T11:10:50;11.80;;;8.23;;
47531;SDS011;33273;52.254;7.988;2023-05-07T11:13:48;10.65;;;8.10;;
47531;SDS011;33273;52.254;7.988;2023-05-07T11:16:37;10.57;;;8.52;;
47531;SDS011;33273;52.254;7.988;2023-05-07T11:19:16;11.27;;;7.57;;
47531;SDS011;33273;52.254;7.988;2023-05-07T11:21:47;11.27;;;8.30;;
47531;SDS011;33273;52.254;7.988;2023-05-07T11:24:25;10.23;;;7.75;;
47531;SDS011;33273;52.254;7.988;2023-05-07T11:26:57;13.10;;;9.13;;
47531;SDS011;33273;52.254;7.988;2023-05-07T11:29:25;9.30;;;7.65;;
47531;SDS011;33273;52.254;7.988;2023-05-07T11:32:04;12.32;;;7.85;;
47531;SDS011;33273;52.254;7.988;2023-05-07T11:34:38;9.95;;;7.72;;
47531;SDS011;33273;52.254;7.988;2023-05-07T11:37:05;9.85;;;7.93;;
47531;SDS011;33273;52.254;7.988;2023-05-07T11:39:43;9.18;;;7.47;;
47531;SDS011;33273;52.254;7.988;2023-05-07T11:42:28;10.05;;;7.63;;
47531;SDS011;33273;52.254;7.988;2023-05-07T11:44:57;11.52;;;7.85;;
47531;SDS011;33273;52.254;7.988;2023-05-07T11:47:24;9.45;;;7.10;;
47531;SDS011;33273;52.254;7.988;2023-05-07T11:49:51;11.68;;;7.43;;
47531;SDS011;33273;52.254;7.988;2023-05-07T11:52:19;9.77;;;7.32;;
47531;SDS011;33273;52.254;7.988;2023-05-07T11:54:52;9.63;;;7.43;;
47531;SDS011;33273;52.254;7.988;2023-05-07T11:57:25;10.27;;;7.88;;
47531;SDS011;33273;52.254;7.988;2023-05-07T11:59:55;11.38;;;7.57;;
47531;SDS011;33273;52.254;7.988;2023-05-07T12:02:22;10.63;;;7.45;;
47531;SDS011;33273;52.254;7.988;2023-05-07T12:04:50;9.70;;;7.15;;
47531;SDS011;33273;52.254;7.988;2023-05-07T12:09:43;8.70;;;6.88;;
47531;SDS011;33273;52.254;7.988;2023-05-07T12:12:10;10.73;;;8.07;;
47531;SDS011;33273;52.254;7.988;2023-05-07T12:14:42;11.55;;;8.15;;
47531;SDS011;33273;52.254;7.988;2023-05-07T12:17:10;11.02;;;7.72;;
47531;SDS011;33273;52.254;7.988;2023-05-07T12:19:37;8.10;;;6.88;;
47531;SDS011;33273;52.254;7.988;2023-05-07T12:22:05;8.52;;;6.90;;
47531;SDS011;33273;52.254;7.988;2023-05-07T12:24:49;10.98;;;7.65;;
47531;SDS011;33273;52.254;7.988;2023-05-07T12:27:22;11.93;;;7.95;;
47531;SDS011;33273;52.254;7.988;2023-05-07T12:29:48;10.93;;;7.75;;
47531;SDS011;33273;52.254;7.988;2023-05-07T12:32:16;10.32;;;7.60;;
47531;SDS011;33273;52.254;7.988;2023-05-07T12:34:43;11.05;;;7.30;;
47531;SDS011;33273;52.254;7.988;2023-05-07T12:39:35;10.20;;;7.93;;
47531;SDS011;33273;52.254;7.988;2023-05-07T12:42:01;10.85;;;7.30;;
47531;SDS011;33273;52.254;7.988;2023-05-07T12:44:31;11.82;;;7.80;;
47531;SDS011;33273;52.254;7.988;2023-05-07T12:46:58;11.48;;;7.90;;
47531;SDS011;33273;52.254;7.988;2023-05-07T12:49:26;9.75;;;8.15;;
47531;SDS011;33273;52.254;7.988;2023-05-07T12:51:53;9.63;;;6.97;;
47531;SDS011;33273;52.254;7.988;2023-05-07T12:54:30;9.43;;;7.82;;
47531;SDS011;33273;52.254;7.988;2023-05-07T12:57:04;10.37;;;6.90;;
47531;SDS011;33273;52.254;7.988;2023-05-07T12:59:38;10.07;;;7.38;;
47531;SDS011;33273;52.254;7.988;2023-05-07T13:02:08;9.88;;;7.15;;
47531;SDS011;33273;52.254;7.988;2023-05-07T13:04:35;11.82;;;8.05;;
47531;SDS011;33273;52.254;7.988;2023-05-07T13:07:01;9.63;;;6.30;;
47531;SDS011;33273;52.254;7.988;2023-05-07T13:09:29;8.85;;;6.40;;
47531;SDS011;33273;52.254;7.988;2023-05-07T13:11:56;8.60;;;6.25;;
47531;SDS011;33273;52.254;7.988;2023-05-07T13:14:25;8.30;;;6.43;;
47531;SDS011;33273;52.254;7.988;2023-05-07T13:16:50;9.38;;;6.32;;
47531;SDS011;33273;52.254;7.988;2023-05-07T13:19:17;8.50;;;6.38;;
47531;SDS011;33273;52.254;7.988;2023-05-07T13:21:43;8.57;;;6.35;;
47531;SDS011;33273;52.254;7.988;2023-05-07T13:24:09;9.43;;;6.80;;
47531;SDS011;33273;52.254;7.988;2023-05-07T13:26:35;9.17;;;6.70;;
47531;SDS011;33273;52.254;7.988;2023-05-07T13:29:01;8.27;;;6.72;;
47531;SDS011;33273;52.254;7.988;2023-05-07T13:31:26;8.45;;;6.18;;
47531;SDS011;33273;52.254;7.988;2023-05-07T13:33:52;8.10;;;5.35;;
47531;SDS011;33273;52.254;7.988;2023-05-07T13:36:18;8.38;;;5.70;;
47531;SDS011;33273;52.254;7.988;2023-05-07T13:38:44;5.93;;;4.97;;
47531;SDS011;33273;52.254;7.988;2023-05-07T13:41:12;8.43;;;6.13;;
47531;SDS011;33273;52.254;7.988;2023-05-07T13:43:38;7.35;;;5.70;;
47531;SDS011;33273;52.254;7.988;2023-05-07T13:46:04;8.40;;;5.95;;
47531;SDS011;33273;52.254;7.988;2023-05-07T13:48:30;7.47;;;5.60;;
47531;SDS011;33273;52.254;7.988;2023-05-07T13:50:55;8.50;;;6.30;;
47531;SDS011;33273;52.254;7.988;2023-05-07T13:53:21;7.30;;;5.65;;
47531;SDS011;33273;52.254;7.988;2023-05-07T13:55:47;7.70;;;5.23;;
47531;SDS011;33273;52.254;7.988;2023-05-07T13:58:13;7.32;;;5.10;;
47531;SDS011;33273;52.254;7.988;2023-05-07T14:00:39;7.85;;;5.88;;
47531;SDS011;33273;52.254;7.988;2023-05-07T14:03:05;8.00;;;5.88;;
47531;SDS011;33273;52.254;7.988;2023-05-07T14:05:31;8.40;;;6.10;;
47531;SDS011;33273;52.254;7.988;2023-05-07T14:07:57;7.40;;;5.68;;
47531;SDS011;33273;52.254;7.988;2023-05-07T14:10:23;7.78;;;5.70;;
47531;SDS011;33273;52.254;7.988;2023-05-07T14:12:49;6.88;;;5.45;;
47531;SDS011;33273;52.254;7.988;2023-05-07T14:15:15;8.07;;;5.63;;
47531;SDS011;33273;52.254;7.988;2023-05-07T14:17:42;6.82;;;5.25;;
47531;SDS011;33273;52.254;7.988;2023-05-07T14:20:10;6.85;;;5.25;;
47531;SDS011;33273;52.254;7.988;2023-05-07T14:22:36;7.13;;;5.80;;
47531;SDS011;33273;52.254;7.988;2023-05-07T14:25:02;8.52;;;6.70;;
47531;SDS011;33273;52.254;7.988;2023-05-07T14:27:28;7.63;;;5.10;;
47531;SDS011;33273;52.254;7.988;2023-05-07T14:29:54;7.65;;;5.75;;
47531;SDS011;33273;52.254;7.988;2023-05-07T14:32:20;8.47;;;6.07;;
47531;SDS011;33273;52.254;7.988;2023-05-07T14:34:47;8.45;;;6.25;;
47531;SDS011;33273;52.254;7.988;2023-05-07T14:37:15;7.68;;;6.00;;
47531;SDS011;33273;52.254;7.988;2023-05-07T14:39:41;8.80;;;5.68;;
47531;SDS011;33273;52.254;7.988;2023-05-07T14:42:07;8.37;;;5.67;;
47531;SDS011;33273;52.254;7.988;2023-05-07T14:44:34;7.93;;;5.78;;
47531;SDS011;33273;52.254;7.988;2023-05-07T14:47:00;9.57;;;6.20;;
47531;SDS011;33273;52.254;7.988;2023-05-07T14:49:26;7.03;;;5.55;;
47531;SDS011;33273;52.254;7.988;2023-05-07T14:51:52;7.82;;;6.13;;
47531;SDS011;33273;52.254;7.988;2023-05-07T14:54:19;6.68;;;5.60;;
47531;SDS011;33273;52.254;7.988;2023-05-07T14:56:45;8.35;;;6.53;;
47531;SDS011;33273;52.254;7.988;2023-05-07T14:59:12;8.55;;;5.97;;
47531;SDS011;33273;52.254;7.988;2023-05-07T15:01:38;9.15;;;5.70;;
47531;SDS011;33273;52.254;7.988;2023-05-07T15:04:07;7.30;;;5.68;;